Bridgeport, CT (06604)

3:20 AM EDT on September 21, 2014 (GMT -0400)
Stratfield Area | Change Station
CLOSE
Current Station
Personal Weather Station
Location: Fairfield, CT
Elevation: 174 ft
Nearby Weather Stations

Elev 174 ft 41.20 °N, 73.23 °W | Updated 7 minutes ago

Rain
Rain
64.8 °F
Feels Like 64.8 °F
N
2.0
Wind Variable Wind from ESE
Gusts 2.0 mph

Today
High -- | Low -- °F
--% Chance of Precip.
Yesterday
High -- | Low -- °F
Precip. -- in
6:39 AM 6:51 PM
Waning Crescent, 8% visible
Pressure 29.96 in
Visibility 5.0 miles
Clouds Mostly Cloudy 500 ft
Overcast 900 ft
Dew Point 64 °F
Humidity 97%
Rainfall 0.15 in
Snow Depth Not available.
UV 0 out of 12
Pollen 2.70 out of 12
Ozone Good
PM2.5 Good
Flu Activity Not available.
SPECI KBDR 210707Z AUTO 05006KT 5SM -RA BR BKN005 OVC009 19/18 A2996 RMK AO2 P0002 T01940183

More Conditions Fewer Conditions

Pressure 29.96 in
Visibility 5.0 miles
Clouds Mostly Cloudy 500 ft
Overcast 900 ft
Dew Point 64 °F
Humidity 97%
Rainfall 0.15 in
Snow Depth Not available.
UV 0 out of 12
Pollen 2.70 out of 12
Ozone Good
PM2.5 Good
Flu Activity Not available.
SPECI KBDR 210707Z AUTO 05006KT 5SM -RA BR BKN005 OVC009 19/18 A2996 RMK AO2 P0002 T01940183

More Conditions Fewer Conditions

10-Day Weather Forecast

Almanac

Astronomy

Sep. 21, 2014 Rise Set
Actual Time 6:39 AM EDT 6:51 PM EDT
Civil Twilight 6:11 AM EDT 7:19 PM EDT
Nautical Twilight 5:39 AM EDT 7:51 PM EDT
Astronomical Twilight 5:06 AM EDT 8:24 PM EDT
Moon 4:09 AM EDT 5:27 PM EDT
Length of Visible Light 13h 07m
Length of Day
12h 12m
Tomorrow will be 2m 43s shorter.
Waning Crescent, 8% of the Moon is Illuminated
Today
Waning Crescent
Sep 24
New
Oct 1
First Quarter
Oct 8
Full
Oct 15
Last Quarter

Today's Extremes

State Highs State Lows

Community

WunderPhotos

Upload Photos

1,755,101 photos uploaded!

Nearby

Air Quality

  Air Quality AQ Index Pollutant
Yesterday Good
OZONE
Yesterday Good
PM2.5
Current Good
OZONE
Current Good
PM2.5
Sunday Good
PM2.5
Sunday Good
OZONE
Monday Good
PM2.5
Monday Good
OZONE

Snow Depth

Station Depth Elevation
No new snow has been reported.

Earthquake Activity

City Distance Mag. Time & Date
No recent earthquake activity has been reported nearby.
Minimum magnitude displayed is 2.5.

Coastal Water Temperatures

Place Temperature
Bridgeport, CT 69.1 °F

Nearby Weather Stations